createdAt,value
2023-02-03T00:00:02.351Z,76
2023-02-03T00:20:02.903Z,77
2023-02-03T00:40:03.208Z,78
2023-02-03T01:00:02.686Z,79
2023-02-03T01:20:03.212Z,80
2023-02-03T01:40:02.510Z,81
2023-02-03T02:00:02.750Z,81
2023-02-03T02:20:03.358Z,82
2023-02-03T02:40:02.910Z,83
2023-02-03T03:00:02.182Z,84
2023-02-03T03:20:02.626Z,84
2023-02-03T03:40:02.880Z,84
2023-02-03T04:00:02.130Z,84
2023-02-03T04:20:02.660Z,85
2023-02-03T04:40:02.911Z,86
2023-02-03T05:00:02.280Z,86
2023-02-03T05:20:02.811Z,88
2023-02-03T05:40:03.201Z,89
2023-02-03T06:00:02.698Z,90
2023-02-03T06:20:02.991Z,91
2023-02-03T06:40:02.378Z,92
2023-02-03T07:00:02.667Z,93
2023-02-03T07:20:03.295Z,94
2023-02-03T07:40:02.746Z,95
2023-02-03T08:00:03.416Z,95
2023-02-03T08:20:02.305Z,95
2023-02-03T08:40:02.606Z,95
2023-02-03T09:00:04.489Z,95
2023-02-03T09:20:03.041Z,95
2023-02-03T09:40:03.416Z,95
2023-02-03T10:00:03.411Z,95
2023-02-03T10:20:03.097Z,95
2023-02-03T10:40:02.522Z,95
2023-02-03T11:00:03.185Z,95
2023-02-03T11:20:02.614Z,93
2023-02-03T11:40:03.060Z,88
2023-02-03T12:00:02.556Z,84
2023-02-03T12:20:02.987Z,80
2023-02-03T12:40:02.662Z,76
2023-02-03T13:00:02.932Z,73
2023-02-03T13:20:02.397Z,76
2023-02-03T13:40:02.671Z,78
2023-02-03T14:00:03.225Z,80
2023-02-03T14:20:03.095Z,79
2023-02-03T14:40:06.804Z,77
2023-02-03T15:00:03.427Z,75
2023-02-03T15:20:03.467Z,74
2023-02-03T15:40:03.210Z,75
2023-02-03T16:00:02.787Z,77
2023-02-03T16:20:02.559Z,76
2023-02-03T16:40:03.112Z,76
2023-02-03T17:00:03.484Z,76
2023-02-03T17:20:03.217Z,76
2023-02-03T18:00:02.651Z,75
2023-02-03T18:20:03.336Z,74
2023-02-03T18:40:02.779Z,74
2023-02-03T19:00:03.793Z,74
2023-02-03T19:20:02.466Z,74
2023-02-03T19:40:02.906Z,75
2023-02-03T20:00:03.060Z,77
2023-02-03T20:20:02.912Z,78
2023-02-03T20:40:02.318Z,81
2023-02-03T21:00:03.430Z,82
2023-02-03T21:20:03.041Z,84
2023-02-03T21:40:02.348Z,82
2023-02-03T22:00:02.918Z,78
2023-02-03T22:20:02.443Z,77
2023-02-03T22:40:02.745Z,78
2023-02-03T23:00:03.121Z,78
2023-02-03T23:20:02.588Z,79
2023-02-03T23:40:02.969Z,79
